createdAt,value
2022-12-22T08:12:32.865Z,9.80
2022-12-22T08:15:34.015Z,10.00
2022-12-22T08:18:36.722Z,10.20
2022-12-22T08:21:37.668Z,10.60
2022-12-22T08:24:38.375Z,11.00
2022-12-22T08:27:50.075Z,11.80
2022-12-22T08:30:50.946Z,11.90
2022-12-22T08:33:54.897Z,11.30
2022-12-22T08:38:05.618Z,13.30
2022-12-22T08:41:12.498Z,12.80
2022-12-22T08:44:14.121Z,11.90
2022-12-22T08:47:17.192Z,11.30
2022-12-22T08:50:18.268Z,11.30
2022-12-22T08:53:54.030Z,11.80
2022-12-22T08:56:40.565Z,12.90
2022-12-22T08:59:41.671Z,13.30
2022-12-22T09:02:42.683Z,15.10
2022-12-22T09:05:43.720Z,14.60
2022-12-22T09:08:44.661Z,12.60
2022-12-22T09:11:45.521Z,11.80
2022-12-22T09:14:46.338Z,11.70
2022-12-22T09:17:48.421Z,11.50
2022-12-22T09:20:55.894Z,11.50
2022-12-22T09:23:57.982Z,11.80
2022-12-22T09:26:59.434Z,11.40
2022-12-22T09:30:00.718Z,11.40
2022-12-22T09:33:01.911Z,11.60
2022-12-22T09:36:12.713Z,11.80
2022-12-22T09:39:14.482Z,11.50
2022-12-22T09:42:20.397Z,11.80
2022-12-22T09:45:21.520Z,11.40
2022-12-22T09:48:22.210Z,11.20
2022-12-22T09:51:27.081Z,11.10
2022-12-22T09:54:30.572Z,11.10
2022-12-22T09:57:33.225Z,11.10
2022-12-22T10:00:37.034Z,11.20
2022-12-22T10:04:00.030Z,10.80
2022-12-22T10:07:28.238Z,11.10
2022-12-22T10:10:32.471Z,11.80
2022-12-22T10:13:34.064Z,13.80
2022-12-22T10:16:34.849Z,13.80
2022-12-22T10:19:36.015Z,12.80
2022-12-22T10:22:51.366Z,14.10
2022-12-22T10:29:19.342Z,12.20
2022-12-22T10:32:22.403Z,12.20
2022-12-22T10:35:23.641Z,12.40
2022-12-22T10:38:32.562Z,12.30
2022-12-22T10:41:40.598Z,12.80
2022-12-22T10:44:48.779Z,12.10
2022-12-22T10:47:55.393Z,12.00
2022-12-22T10:50:58.865Z,11.90
2022-12-22T10:53:59.815Z,11.80
2022-12-22T10:57:16.751Z,11.80
2022-12-22T11:00:31.891Z,12.00
2022-12-22T11:03:33.231Z,12.20
2022-12-22T11:06:34.266Z,12.10
2022-12-22T11:09:35.800Z,11.80
2022-12-22T11:13:09.100Z,11.80
2022-12-22T11:16:33.209Z,11.80
2022-12-22T11:19:51.907Z,11.80
2022-12-22T11:24:02.819Z,11.80
2022-12-22T11:27:59.489Z,11.90
2022-12-22T11:32:01.434Z,11.80
2022-12-22T11:35:29.352Z,11.80
2022-12-22T11:39:16.540Z,11.80
2022-12-22T11:42:36.315Z,12.30
2022-12-22T11:45:49.812Z,13.20
2022-12-22T11:49:14.813Z,14.20
2022-12-22T11:52:57.023Z,12.20
2022-12-22T11:56:25.362Z,11.70
2022-12-22T12:00:03.365Z,11.70
2022-12-22T12:03:24.504Z,11.80
2022-12-22T12:06:58.976Z,11.80
2022-12-22T12:10:30.594Z,12.10
2022-12-22T12:14:11.407Z,12.70
2022-12-22T12:18:09.034Z,12.70
2022-12-22T12:21:26.633Z,13.30
2022-12-22T12:24:57.225Z,13.10
2022-12-22T12:28:23.675Z,13.00
2022-12-22T12:31:48.115Z,13.00
2022-12-22T12:34:58.125Z,12.90
2022-12-22T12:38:25.972Z,12.80
2022-12-22T12:42:11.862Z,12.60
2022-12-22T12:45:41.297Z,12.40
2022-12-22T12:48:42.923Z,12.60
2022-12-22T12:51:50.451Z,12.80
2022-12-22T12:54:52.245Z,12.60
2022-12-22T12:57:53.794Z,12.50
2022-12-22T13:00:58.779Z,12.50
2022-12-22T13:04:03.526Z,12.80
2022-12-22T13:07:05.063Z,12.50
2022-12-22T13:10:25.876Z,12.90
2022-12-22T13:13:26.678Z,12.90
2022-12-22T13:16:31.661Z,12.50
2022-12-22T13:19:32.800Z,12.90
2022-12-22T13:22:34.037Z,13.30
2022-12-22T13:25:53.841Z,12.50
2022-12-22T13:29:08.985Z,12.30
2022-12-22T13:32:36.016Z,12.50
2022-12-22T13:35:47.164Z,12.70
2022-12-22T13:39:11.812Z,12.10
2022-12-22T13:42:13.568Z,12.50
2022-12-22T13:45:37.095Z,12.50
2022-12-22T13:48:49.506Z,12.30
2022-12-22T13:51:51.620Z,12.30
2022-12-22T13:54:53.810Z,12.50
2022-12-22T13:57:58.869Z,12.00
2022-12-22T14:01:20.069Z,11.50
2022-12-22T14:04:23.112Z,11.30
2022-12-22T14:07:24.270Z,11.20
2022-12-22T14:10:43.878Z,11.50
2022-12-22T14:13:45.322Z,11.80
2022-12-22T14:16:50.074Z,11.50
2022-12-22T14:19:55.617Z,11.50
2022-12-22T14:23:32.006Z,11.30
2022-12-22T14:26:33.947Z,10.90
2022-12-22T14:29:35.127Z,10.60
2022-12-22T14:32:55.347Z,10.40
2022-12-22T14:36:23.401Z,10.20
2022-12-22T14:39:28.552Z,10.30
2022-12-22T14:42:32.019Z,10.20
2022-12-22T14:45:33.742Z,10.20
2022-12-22T14:48:46.608Z,10.10
2022-12-22T14:52:06.323Z,10.30
2022-12-22T14:55:27.546Z,10.30
2022-12-22T14:58:34.505Z,10.10
2022-12-22T15:01:35.370Z,10.10
2022-12-22T15:04:36.510Z,9.90
2022-12-22T15:08:08.526Z,9.80
2022-12-22T15:11:18.557Z,9.90
2022-12-22T15:14:26.709Z,9.90
2022-12-22T15:17:27.966Z,10.00
2022-12-22T15:20:37.051Z,10.00
2022-12-22T15:23:40.395Z,10.00
2022-12-22T15:26:45.986Z,10.10
2022-12-22T15:29:47.065Z,10.10
2022-12-22T15:32:48.330Z,10.20
2022-12-22T15:35:49.056Z,10.10
2022-12-22T15:38:51.208Z,10.10
2022-12-22T15:41:52.444Z,10.00
2022-12-22T15:44:53.397Z,10.10
2022-12-22T15:47:55.811Z,10.00
2022-12-22T15:50:58.149Z,10.10
2022-12-22T15:54:00.807Z,9.90
2022-12-22T15:57:02.016Z,9.90
2022-12-22T16:00:03.851Z,9.90
2022-12-22T16:03:06.518Z,10.00
2022-12-22T16:06:13.940Z,10.00
2022-12-22T16:09:22.243Z,10.30
2022-12-22T16:12:24.113Z,10.20
2022-12-22T16:15:25.138Z,10.20
2022-12-22T16:18:26.526Z,10.40
2022-12-22T16:21:32.703Z,10.30
2022-12-22T16:24:38.192Z,10.40
2022-12-22T16:27:39.440Z,10.40
2022-12-22T16:30:40.436Z,10.50
2022-12-22T16:33:41.209Z,10.50
2022-12-22T16:36:42.035Z,10.50
2022-12-22T16:39:43.161Z,10.60
2022-12-22T16:46:33.466Z,10.50
2022-12-22T16:49:34.463Z,10.50
2022-12-22T16:52:41.475Z,10.40
2022-12-22T16:55:43.209Z,10.70
2022-12-22T16:58:45.680Z,10.70
2022-12-22T17:01:57.597Z,10.60
2022-12-22T17:05:01.446Z,10.70
2022-12-22T17:08:06.752Z,10.70
2022-12-22T17:11:15.969Z,10.70
2022-12-22T17:14:34.894Z,10.70
2022-12-22T17:17:41.955Z,10.70
2022-12-22T17:20:44.269Z,10.70
2022-12-22T17:23:50.753Z,10.70
2022-12-22T17:26:52.224Z,10.70
2022-12-22T17:29:55.814Z,10.70
2022-12-22T17:32:57.105Z,10.70
2022-12-22T17:35:59.875Z,10.70
2022-12-22T17:39:02.466Z,10.80
2022-12-22T17:42:03.717Z,10.90
2022-12-22T17:45:14.076Z,10.80
2022-12-22T17:48:16.853Z,10.70
2022-12-22T17:51:22.107Z,10.90
2022-12-22T17:54:26.133Z,10.90
2022-12-22T17:57:34.588Z,10.90
2022-12-22T18:00:35.629Z,10.90
2022-12-22T18:03:36.392Z,10.80
2022-12-22T18:06:39.825Z,10.70
2022-12-22T18:09:40.711Z,10.70
2022-12-22T18:12:41.870Z,10.60
2022-12-22T18:15:42.788Z,10.50
2022-12-22T18:18:44.794Z,10.50
2022-12-22T18:21:45.809Z,10.40
2022-12-22T18:24:49.380Z,10.30
2022-12-22T18:27:50.990Z,10.30
2022-12-22T18:30:52.251Z,10.30
2022-12-22T18:33:53.602Z,10.30
2022-12-22T18:36:54.551Z,10.20
2022-12-22T18:39:55.282Z,10.20
2022-12-22T18:42:58.004Z,10.10
2022-12-22T18:45:59.196Z,10.10
2022-12-22T18:49:05.315Z,10.10
2022-12-22T18:52:33.343Z,10.10
2022-12-22T18:55:35.160Z,9.90
2022-12-22T18:58:36.141Z,9.90
2022-12-22T19:01:38.775Z,9.80
2022-12-22T19:04:40.027Z,9.80
2022-12-22T19:07:41.107Z,9.80
2022-12-22T19:10:48.263Z,9.70
2022-12-22T19:13:51.879Z,9.60
2022-12-22T19:16:54.768Z,9.60
2022-12-22T19:19:56.880Z,9.50
2022-12-22T19:22:57.955Z,9.50
2022-12-22T19:26:08.582Z,9.40
2022-12-22T19:29:14.109Z,9.40
2022-12-22T19:32:26.237Z,9.30
2022-12-22T19:35:31.106Z,9.30
2022-12-22T19:38:39.905Z,9.30
2022-12-22T19:41:54.801Z,9.40
2022-12-22T19:44:56.039Z,9.30
2022-12-22T19:47:57.982Z,9.40
2022-12-22T19:50:58.940Z,9.30
2022-12-22T19:54:00.295Z,9.30
2022-12-22T19:57:01.818Z,9.30
2022-12-22T20:00:03.862Z,9.30
2022-12-22T20:03:18.164Z,9.40
2022-12-22T20:06:19.289Z,9.60
2022-12-22T20:09:20.260Z,9.60
2022-12-22T20:12:35.934Z,9.50
2022-12-22T20:15:39.740Z,9.50
2022-12-22T20:18:42.056Z,9.50
2022-12-22T20:21:43.983Z,9.50
2022-12-22T20:24:48.293Z,9.40
2022-12-22T20:27:50.561Z,9.40
2022-12-22T20:30:52.677Z,9.30
2022-12-22T20:33:55.062Z,9.30
2022-12-22T20:36:56.090Z,9.20
2022-12-22T20:39:56.697Z,9.20
2022-12-22T20:42:58.623Z,9.10
2022-12-22T20:46:10.461Z,9.10
2022-12-22T20:49:16.386Z,8.90
2022-12-22T20:52:18.838Z,8.80
2022-12-22T20:55:23.461Z,8.60
2022-12-22T20:58:32.223Z,8.60
2022-12-22T21:01:33.265Z,8.60
2022-12-22T21:04:34.416Z,8.60
2022-12-22T21:07:35.251Z,8.60
2022-12-22T21:10:36.463Z,8.50
2022-12-22T21:13:37.124Z,8.40
2022-12-22T21:16:38.219Z,8.40
2022-12-22T21:19:39.191Z,8.30
2022-12-22T21:22:40.385Z,8.20
2022-12-22T21:25:48.883Z,8.20
2022-12-22T21:28:51.744Z,8.20
2022-12-22T21:31:53.538Z,8.30
2022-12-22T21:34:54.273Z,8.30
2022-12-22T21:37:58.525Z,8.30
2022-12-22T21:40:59.660Z,8.40
2022-12-22T21:44:00.195Z,8.40
2022-12-22T21:47:02.925Z,8.30
2022-12-22T21:50:05.403Z,8.30
2022-12-22T21:53:06.723Z,8.20
2022-12-22T21:56:19.012Z,8.10
2022-12-22T21:59:20.343Z,8.10
2022-12-22T22:02:21.582Z,8.00
2022-12-22T22:05:38.469Z,8.00
2022-12-22T22:08:39.711Z,8.00
2022-12-22T22:12:13.545Z,7.90
2022-12-22T22:15:15.717Z,7.80
2022-12-22T22:18:18.645Z,7.80
2022-12-22T22:21:19.408Z,7.80
2022-12-22T22:24:20.994Z,7.80
2022-12-22T22:27:22.477Z,7.80
2022-12-22T22:30:26.168Z,7.70
2022-12-22T22:33:27.058Z,7.70
2022-12-22T22:36:27.948Z,7.70
2022-12-22T22:39:29.337Z,7.70
2022-12-22T22:42:30.215Z,7.70
2022-12-22T22:45:30.987Z,7.70
2022-12-22T22:48:32.210Z,7.70
2022-12-22T22:51:33.864Z,7.70
2022-12-22T22:54:34.754Z,7.70
2022-12-22T22:57:35.717Z,7.60
2022-12-22T23:00:36.448Z,7.60
2022-12-22T23:03:38.692Z,7.60
2022-12-22T23:06:41.838Z,7.60
2022-12-22T23:09:42.740Z,7.60
2022-12-22T23:12:44.042Z,7.70
2022-12-22T23:15:57.999Z,7.70
2022-12-22T23:18:59.192Z,7.80
2022-12-22T23:21:59.960Z,7.80
2022-12-22T23:25:00.687Z,7.80
2022-12-22T23:28:01.560Z,7.90
2022-12-22T23:31:02.608Z,8.00
2022-12-22T23:34:04.463Z,8.00
2022-12-22T23:37:05.463Z,8.10
2022-12-22T23:43:28.495Z,8.20
2022-12-22T23:46:29.445Z,8.20
2022-12-22T23:49:30.079Z,8.30
2022-12-22T23:52:30.899Z,8.30
2022-12-22T23:55:31.826Z,8.40
2022-12-22T23:58:33.065Z,8.50
